Nashville International Airport
KBNA : now visible

Airfield :











YOU CAN JOIN US ON...

 
LOGIN :

Register | Disclaimer

   EN    FR    IT 

 









Legend :    VFR   Marginal VFR   IFR   Intensive IFR   Very Intensive IFR
Visi :
Ceiling :
>= 8 km
>= 3000ft
5 to 8 km
1000 to 3000 ft
1500m to 5 km
500 to 1000 ft
800 to 1500m
200 to 500 ft
< 800m
< 200 ft
Symbols :   Thunderstorms  Fog  Heavy snow  Heavy precipitations  Wind > 20 kt







- Airport Elevation : 599 ft
- IATA code : BNA


KBNA - Nashville International

CURRENT METAR :
  • 261053Z 16004KT 10SM FEW070 SCT250 20/18 A3014 RMK AO2 SLP200 T02000178

EXPIRED METARs :
  • 260953Z 18003KT 10SM FEW250 22/18 A3012 RMK AO2 SLP192 T02170178
  • 260853Z 18004KT 10SM SCT250 21/18 A3011 RMK AO2 SLP187 T02110178 53002

TAF KBNA
Valid from the 26 at 12:00 until the 27 at 12:00 UTC


261121Z 2612/2712 19004KT P6SM SKC
FM261500 23008G16KT P6SM SCT050 SCT250
FM270100 20004KT P6SM FEW250
KZME FIR / North America



MET'MAP, your aeronautical weather chart ! - Copyright ORBIFLY December 2007 - Disclaimer

ORBIFLY MET'MAP TEAM :

Programming & Development : Alexandra Zaïnal
Concept & Development : Baudouin d'Aumeries
Co-Development & Prog : Marc-Olivier Méhu
Technical & hardware support : Manuel Goepfert

Contact : metmap@orbifly.com




SOURCES & CREDITS :

   NOAA       Earth
Advisory